createdAt,value
2022-11-01T00:00:48.733Z,4.00
2022-11-01T00:03:16.369Z,5.80
2022-11-01T00:05:43.926Z,3.00
2022-11-01T00:08:13.215Z,2.80
2022-11-01T00:10:40.881Z,4.00
2022-11-01T00:13:08.431Z,3.40
2022-11-01T00:15:36.392Z,2.40
2022-11-01T00:18:04.250Z,0.00
2022-11-01T00:20:33.729Z,4.00
2022-11-01T00:23:01.927Z,4.00
2022-11-01T00:25:29.766Z,3.00
2022-11-01T00:27:57.371Z,4.00
2022-11-01T00:30:24.903Z,5.60
2022-11-01T00:32:53.008Z,3.60
2022-11-01T00:35:20.987Z,6.00
2022-11-01T00:37:48.555Z,5.80
2022-11-01T00:40:16.221Z,6.00
2022-11-01T00:42:43.758Z,4.00
2022-11-01T00:45:11.344Z,5.80
2022-11-01T00:47:39.299Z,1.60
2022-11-01T00:50:06.866Z,3.00
2022-11-01T00:52:34.432Z,2.80
2022-11-01T00:55:02.009Z,4.00
2022-11-01T00:57:29.910Z,2.60
2022-11-01T00:59:57.855Z,3.80
2022-11-01T01:02:25.516Z,5.20
2022-11-01T01:04:53.143Z,4.00
2022-11-01T01:07:20.687Z,3.40
2022-11-01T01:09:48.297Z,5.20
2022-11-01T01:12:16.222Z,6.00
2022-11-01T01:14:43.750Z,1.00
2022-11-01T01:17:11.369Z,4.00
2022-11-01T01:19:39.268Z,4.00
2022-11-01T01:22:06.810Z,3.80
2022-11-01T01:24:34.566Z,5.20
2022-11-01T01:27:02.135Z,3.00
2022-11-01T01:29:29.671Z,3.20
2022-11-01T01:31:57.301Z,3.40
2022-11-01T01:34:24.865Z,1.40
2022-11-01T01:36:52.419Z,4.00
2022-11-01T01:39:20.008Z,4.00
2022-11-01T01:41:59.704Z,3.00
2022-11-01T01:44:27.312Z,1.00
2022-11-01T01:46:54.858Z,4.00
2022-11-01T01:49:22.368Z,3.80
2022-11-01T01:51:49.977Z,4.00
2022-11-01T01:54:17.541Z,0.60
2022-11-01T01:56:45.541Z,6.00
2022-11-01T01:59:14.314Z,3.60
2022-11-01T02:01:41.976Z,4.80
2022-11-01T02:04:10.043Z,4.00
2022-11-01T02:06:37.587Z,5.20
2022-11-01T02:09:07.701Z,0.20
2022-11-01T02:11:35.632Z,6.40
2022-11-01T02:14:03.210Z,4.00
2022-11-01T02:16:30.778Z,1.00
2022-11-01T02:18:58.324Z,4.00
2022-11-01T02:21:27.213Z,4.40
2022-11-01T02:23:55.204Z,3.80
2022-11-01T02:26:23.098Z,6.00
2022-11-01T02:28:50.692Z,3.00
2022-11-01T02:31:18.205Z,3.40
2022-11-01T02:33:45.747Z,2.60
2022-11-01T02:36:13.557Z,3.40
2022-11-01T02:38:41.084Z,4.00
2022-11-01T02:41:08.582Z,5.60
2022-11-01T02:43:36.213Z,3.00
2022-11-01T02:46:26.206Z,3.80
2022-11-01T02:48:53.741Z,3.00
2022-11-01T02:51:21.296Z,4.80
2022-11-01T02:53:48.827Z,6.00
2022-11-01T02:56:16.373Z,4.00
2022-11-01T02:58:44.786Z,2.20
2022-11-01T03:01:15.407Z,3.80
2022-11-01T03:03:43.098Z,2.20
2022-11-01T03:06:10.629Z,4.00
2022-11-01T03:08:38.636Z,3.00
2022-11-01T03:11:06.911Z,3.40
2022-11-01T03:13:34.463Z,0.00
2022-11-01T03:16:02.041Z,3.00
2022-11-01T03:18:29.651Z,0.40
2022-11-01T03:20:59.388Z,3.40
2022-11-01T03:23:27.364Z,6.00
2022-11-01T03:25:54.952Z,3.60
2022-11-01T03:28:22.949Z,3.40
2022-11-01T03:30:50.502Z,4.00
2022-11-01T03:33:20.596Z,0.40
2022-11-01T03:35:48.556Z,3.00
2022-11-01T03:38:16.124Z,2.60
2022-11-01T03:40:44.075Z,0.00
2022-11-01T03:43:11.609Z,4.00
2022-11-01T03:45:40.527Z,6.00
2022-11-01T03:48:08.548Z,3.00
2022-11-01T03:50:36.409Z,4.00
2022-11-01T03:53:03.981Z,3.00
2022-11-01T03:55:31.570Z,3.00
2022-11-01T03:58:00.804Z,6.00
2022-11-01T04:00:28.986Z,3.60
2022-11-01T04:02:56.749Z,3.80
2022-11-01T04:05:24.333Z,4.80
2022-11-01T04:07:52.511Z,2.60
2022-11-01T04:10:20.122Z,3.00
2022-11-01T04:12:48.820Z,4.00
2022-11-01T04:15:33.641Z,3.20
2022-11-01T04:18:18.550Z,3.00
2022-11-01T04:20:49.094Z,4.00
2022-11-01T04:23:17.030Z,4.00
2022-11-01T04:25:44.590Z,3.40
2022-11-01T04:28:12.227Z,3.00
2022-11-01T04:30:39.845Z,4.00
2022-11-01T04:33:10.568Z,4.00
2022-11-01T04:35:38.702Z,1.00
2022-11-01T04:38:06.668Z,3.20
2022-11-01T04:40:34.511Z,3.00
2022-11-01T04:43:02.106Z,1.80
2022-11-01T04:45:31.326Z,3.20
2022-11-01T04:47:59.534Z,3.00
2022-11-01T04:50:27.363Z,5.60
2022-11-01T04:52:54.894Z,3.20
2022-11-01T04:55:22.823Z,4.00
2022-11-01T04:57:50.435Z,5.60
2022-11-01T05:00:18.381Z,6.20
2022-11-01T05:02:45.948Z,3.00
2022-11-01T05:05:13.606Z,3.20
2022-11-01T05:07:41.172Z,3.00
2022-11-01T05:10:10.363Z,3.20
2022-11-01T05:12:37.984Z,4.80
2022-11-01T05:15:05.660Z,3.00
2022-11-01T05:17:33.560Z,3.60
2022-11-01T05:20:01.194Z,4.80
2022-11-01T05:22:28.773Z,0.80
2022-11-01T05:24:56.699Z,3.80
2022-11-01T05:27:24.308Z,3.40
2022-11-01T05:29:51.893Z,3.00
2022-11-01T05:32:19.452Z,1.00
2022-11-01T05:34:49.932Z,3.20
2022-11-01T05:37:17.896Z,3.00
2022-11-01T05:39:45.446Z,3.00
2022-11-01T05:42:13.099Z,4.00
2022-11-01T05:44:40.708Z,3.00
2022-11-01T05:47:09.660Z,1.00
2022-11-01T05:49:39.145Z,1.40
2022-11-01T05:52:06.724Z,1.40
2022-11-01T05:54:34.332Z,1.40
2022-11-01T05:57:01.955Z,4.40
2022-11-01T05:59:29.545Z,3.00
2022-11-01T06:01:57.653Z,4.00
2022-11-01T06:04:25.398Z,3.80
2022-11-01T06:06:52.963Z,1.40
2022-11-01T06:09:20.581Z,4.00
2022-11-01T06:11:49.869Z,3.00
2022-11-01T06:14:17.891Z,1.00
2022-11-01T06:16:45.515Z,1.00
2022-11-01T06:19:13.160Z,3.40
2022-11-01T06:21:40.797Z,3.00
2022-11-01T06:24:11.972Z,3.00
2022-11-01T06:26:39.913Z,3.60
2022-11-01T06:29:07.586Z,1.00
2022-11-01T06:31:35.235Z,4.00
2022-11-01T06:34:02.887Z,3.80
2022-11-01T06:36:32.048Z,4.00
2022-11-01T06:38:59.661Z,2.20
2022-11-01T06:41:27.246Z,4.00
2022-11-01T06:43:54.825Z,1.00
2022-11-01T06:46:22.851Z,3.80
2022-11-01T06:48:50.480Z,3.00
2022-11-01T06:51:18.416Z,3.00
2022-11-01T06:53:46.041Z,3.00
2022-11-01T06:56:13.718Z,1.00
2022-11-01T06:58:41.338Z,3.80
2022-11-01T07:01:09.062Z,1.00
2022-11-01T07:03:37.628Z,2.60
2022-11-01T07:06:05.259Z,1.00
2022-11-01T07:08:32.886Z,2.20
2022-11-01T07:11:00.747Z,1.00
2022-11-01T07:13:33.879Z,1.00
2022-11-01T07:16:02.157Z,1.00
2022-11-01T07:18:30.670Z,0.20
2022-11-01T07:20:58.268Z,3.00
2022-11-01T07:23:25.903Z,1.00
2022-11-01T07:25:54.105Z,1.80
2022-11-01T07:28:22.099Z,2.40
2022-11-01T07:30:49.787Z,1.00
2022-11-01T07:33:17.427Z,1.00
2022-11-01T07:35:45.052Z,1.00
2022-11-01T07:38:14.798Z,2.20
2022-11-01T07:40:42.942Z,0.40
2022-11-01T07:43:10.604Z,1.00
2022-11-01T07:45:38.412Z,1.00
2022-11-01T07:48:06.190Z,0.60
2022-11-01T07:50:34.379Z,1.00
2022-11-01T07:53:02.873Z,0.00
2022-11-01T07:55:30.626Z,1.00
2022-11-01T07:57:58.302Z,0.60
2022-11-01T08:00:26.214Z,0.00
2022-11-01T08:02:53.996Z,0.00
2022-11-01T08:05:22.033Z,0.00
2022-11-01T08:07:49.881Z,0.00
2022-11-01T08:10:17.595Z,0.00
2022-11-01T08:12:45.582Z,0.00
2022-11-01T08:15:13.430Z,0.00
2022-11-01T08:17:41.436Z,0.00
2022-11-01T08:20:09.201Z,0.00
2022-11-01T08:22:37.059Z,0.00
2022-11-01T08:25:04.880Z,0.00
2022-11-01T08:27:34.617Z,0.00
2022-11-01T08:30:03.717Z,0.00
2022-11-01T08:32:31.436Z,0.00
2022-11-01T08:34:59.511Z,0.60
2022-11-01T08:37:27.287Z,0.00
2022-11-01T08:39:57.287Z,0.00
2022-11-01T08:42:25.345Z,0.00
2022-11-01T08:44:53.153Z,0.00
2022-11-01T08:47:20.875Z,0.40
2022-11-01T08:49:48.705Z,0.00
2022-11-01T08:52:18.130Z,0.00
2022-11-01T08:54:46.511Z,0.00
2022-11-01T08:57:16.173Z,0.00
2022-11-01T08:59:43.893Z,0.00
2022-11-01T09:02:11.728Z,0.00
2022-11-01T09:04:41.878Z,0.00
2022-11-01T09:07:10.164Z,0.00
2022-11-01T09:09:37.972Z,0.00
2022-11-01T09:12:07.043Z,0.40
2022-11-01T09:14:36.615Z,0.00
2022-11-01T09:17:05.800Z,0.00
2022-11-01T09:19:34.402Z,0.00
2022-11-01T09:22:02.364Z,0.00
2022-11-01T09:24:30.088Z,0.00
2022-11-01T09:26:57.971Z,0.00
2022-11-01T09:29:27.345Z,0.00
2022-11-01T09:31:55.407Z,0.00
2022-11-01T09:34:23.188Z,0.00
2022-11-01T09:36:51.260Z,0.00
2022-11-01T09:39:22.250Z,0.00
2022-11-01T09:41:50.095Z,0.00
2022-11-01T09:44:18.680Z,0.00
2022-11-01T09:46:46.573Z,0.00
2022-11-01T09:49:15.045Z,0.00
2022-11-01T09:51:42.972Z,0.00
2022-11-01T09:54:11.502Z,0.00
2022-11-01T09:56:39.726Z,0.00
2022-11-01T09:59:07.582Z,0.00
2022-11-01T10:01:40.547Z,0.00
2022-11-01T10:04:09.127Z,0.00
2022-11-01T10:06:40.850Z,0.00
2022-11-01T10:09:08.892Z,0.00
2022-11-01T10:11:36.950Z,0.00
2022-11-01T10:14:04.878Z,0.00
2022-11-01T10:16:32.742Z,0.00
2022-11-01T10:19:01.105Z,0.00
2022-11-01T10:21:29.881Z,0.00
2022-11-01T10:23:57.851Z,0.00
2022-11-01T10:26:26.072Z,0.00
2022-11-01T10:28:53.901Z,0.00
2022-11-01T10:31:22.280Z,0.00
2022-11-01T10:33:50.235Z,0.00
2022-11-01T10:36:18.138Z,0.00
2022-11-01T10:41:36.081Z,0.00
2022-11-01T10:44:03.918Z,0.00
2022-11-01T10:46:32.329Z,0.00
2022-11-01T10:49:00.255Z,0.00
2022-11-01T10:51:28.233Z,0.00
2022-11-01T10:53:59.454Z,0.00
2022-11-01T10:56:27.405Z,0.00
2022-11-01T10:58:55.367Z,0.00
2022-11-01T11:01:23.487Z,0.00
2022-11-01T11:03:51.590Z,0.00
2022-11-01T11:06:21.094Z,0.00
2022-11-01T11:08:48.951Z,0.00
2022-11-01T11:11:16.848Z,0.00
2022-11-01T11:13:44.741Z,0.00
2022-11-01T11:16:12.595Z,0.00
2022-11-01T11:18:44.194Z,0.00
2022-11-01T11:21:12.099Z,0.00
2022-11-01T11:23:39.948Z,0.00
2022-11-01T11:26:07.690Z,0.00
2022-11-01T11:28:36.026Z,0.00
2022-11-01T11:31:07.288Z,0.00
2022-11-01T11:33:35.087Z,0.00
2022-11-01T11:36:03.159Z,0.00
2022-11-01T11:38:31.020Z,0.00
2022-11-01T11:40:58.959Z,0.00
2022-11-01T11:43:30.901Z,0.00
2022-11-01T11:45:58.727Z,0.00
2022-11-01T11:48:26.614Z,0.00
2022-11-01T11:50:54.898Z,0.00
2022-11-01T11:53:23.535Z,0.00
2022-11-01T11:55:53.423Z,1.00
2022-11-01T11:58:21.280Z,1.00
2022-11-01T12:00:49.106Z,0.00
2022-11-01T12:03:17.817Z,0.00
2022-11-01T12:05:45.601Z,0.00
2022-11-01T12:08:14.168Z,0.00
2022-11-01T12:10:42.069Z,0.00
2022-11-01T12:13:10.052Z,0.00
2022-11-01T12:15:41.268Z,0.00
2022-11-01T12:18:12.933Z,0.00
2022-11-01T12:20:43.950Z,0.00
2022-11-01T12:23:11.873Z,0.00
2022-11-01T12:25:39.755Z,0.00
2022-11-01T12:28:07.507Z,0.00
2022-11-01T12:30:35.552Z,0.00
2022-11-01T12:33:03.921Z,0.00
2022-11-01T12:35:31.916Z,0.00
2022-11-01T12:38:00.109Z,0.00
2022-11-01T12:40:28.410Z,0.00
2022-11-01T12:42:56.371Z,0.00
2022-11-01T12:45:25.477Z,0.00
2022-11-01T12:47:53.330Z,0.00
2022-11-01T12:50:21.076Z,0.00
2022-11-01T12:52:48.957Z,0.00
2022-11-01T12:55:19.823Z,0.60
2022-11-01T12:57:52.555Z,0.00
2022-11-01T13:00:21.348Z,0.00
2022-11-01T13:02:49.222Z,0.00
2022-11-01T13:05:17.204Z,0.00
2022-11-01T13:07:45.150Z,0.00
2022-11-01T13:10:15.275Z,0.00
2022-11-01T13:12:43.395Z,0.00
2022-11-01T13:15:11.433Z,0.00
2022-11-01T13:17:39.541Z,0.00
2022-11-01T13:20:07.465Z,0.00
2022-11-01T13:22:36.724Z,0.00
2022-11-01T13:25:04.658Z,0.00
2022-11-01T13:27:32.596Z,0.00
2022-11-01T13:30:00.414Z,0.00
2022-11-01T13:32:28.240Z,0.00
2022-11-01T13:34:57.357Z,0.00
2022-11-01T13:37:25.422Z,0.00
2022-11-01T13:39:53.460Z,0.00
2022-11-01T13:42:22.437Z,0.00
2022-11-01T13:44:50.300Z,1.00
2022-11-01T13:47:18.546Z,0.00
2022-11-01T13:49:46.326Z,0.00
2022-11-01T13:52:14.169Z,0.00
2022-11-01T13:54:42.122Z,0.00
2022-11-01T13:57:10.211Z,0.00
2022-11-01T13:59:38.864Z,0.00
2022-11-01T14:02:06.828Z,0.00
2022-11-01T14:04:34.929Z,0.00
2022-11-01T14:07:04.993Z,0.00
2022-11-01T14:09:33.027Z,0.00
2022-11-01T14:12:01.795Z,0.00
2022-11-01T14:14:29.661Z,0.00
2022-11-01T14:16:57.485Z,0.00
2022-11-01T14:19:27.617Z,0.00
2022-11-01T14:21:55.790Z,0.00
2022-11-01T14:24:30.702Z,0.00
2022-11-01T14:27:03.766Z,0.00
2022-11-01T14:29:33.069Z,0.00
2022-11-01T14:32:01.589Z,0.00
2022-11-01T14:34:29.842Z,0.00
2022-11-01T14:36:57.661Z,0.00
2022-11-01T14:39:26.198Z,0.00
2022-11-01T14:41:56.336Z,0.00
2022-11-01T14:44:26.091Z,0.00
2022-11-01T14:46:54.019Z,0.00
2022-11-01T14:49:21.813Z,0.00
2022-11-01T14:51:50.203Z,0.20
2022-11-01T14:54:18.093Z,0.00
2022-11-01T14:56:46.107Z,0.00
2022-11-01T14:59:15.641Z,0.00
2022-11-01T15:01:43.807Z,0.00
2022-11-01T15:04:12.288Z,0.00
2022-11-01T15:06:40.035Z,0.00
2022-11-01T15:09:07.920Z,0.00
2022-11-01T15:11:38.447Z,0.00
2022-11-01T15:14:06.394Z,0.00
2022-11-01T15:16:34.387Z,0.00
2022-11-01T15:19:02.600Z,0.00
2022-11-01T15:21:31.488Z,0.00
2022-11-01T15:24:00.035Z,0.00
2022-11-01T15:26:28.228Z,0.00
2022-11-01T15:28:56.051Z,0.00
2022-11-01T15:31:23.837Z,0.00
2022-11-01T15:33:51.687Z,3.75
2022-11-01T15:36:20.346Z,1.00
2022-11-01T15:38:48.256Z,6.75
2022-11-01T15:41:16.095Z,4.50
2022-11-01T15:43:43.873Z,1.00
2022-11-01T15:46:11.729Z,0.00
2022-11-01T15:48:44.556Z,0.00
2022-11-01T15:51:12.393Z,1.00
2022-11-01T15:53:40.790Z,0.00
2022-11-01T15:56:08.872Z,0.00
2022-11-01T15:58:36.675Z,0.00
2022-11-01T16:01:06.992Z,0.00
2022-11-01T16:03:35.115Z,0.25
2022-11-01T16:06:02.872Z,1.00
2022-11-01T16:08:30.899Z,0.50
2022-11-01T16:10:58.731Z,0.00
2022-11-01T16:13:27.024Z,0.00
2022-11-01T16:15:54.919Z,0.00
2022-11-01T16:18:22.916Z,0.00
2022-11-01T16:20:52.904Z,0.50
2022-11-01T16:23:20.643Z,0.00
2022-11-01T16:25:48.859Z,0.00
2022-11-01T16:28:16.740Z,0.00
2022-11-01T16:30:45.684Z,0.00
2022-11-01T16:33:13.987Z,0.00
2022-11-01T16:35:41.900Z,0.00
2022-11-01T16:38:10.190Z,0.00
2022-11-01T16:40:39.203Z,3.75
2022-11-01T16:43:07.214Z,0.00
2022-11-01T16:45:34.991Z,0.00
2022-11-01T16:48:03.192Z,0.00
2022-11-01T16:50:32.726Z,0.00
2022-11-01T16:53:00.660Z,0.00
2022-11-01T16:55:30.427Z,0.00
2022-11-01T16:57:59.225Z,0.00
2022-11-01T17:00:27.845Z,0.00
2022-11-01T17:02:59.878Z,0.00
2022-11-01T17:05:27.983Z,0.00
2022-11-01T17:07:56.056Z,0.00
2022-11-01T17:10:25.825Z,0.00
2022-11-01T17:12:54.934Z,0.00
2022-11-01T17:15:24.527Z,0.00
2022-11-01T17:17:53.081Z,0.00
2022-11-01T17:20:23.724Z,0.00
2022-11-01T17:22:52.770Z,0.00
2022-11-01T17:25:23.276Z,0.00
2022-11-01T17:27:57.851Z,0.00
2022-11-01T17:30:27.239Z,0.00
2022-11-01T17:32:57.816Z,0.50
2022-11-01T17:35:30.186Z,0.00
2022-11-01T17:38:09.749Z,0.00
2022-11-01T17:40:39.805Z,0.00
2022-11-01T17:43:07.612Z,0.00
2022-11-01T17:45:35.408Z,0.00
2022-11-01T17:48:07.895Z,0.00
2022-11-01T17:50:35.743Z,0.00
2022-11-01T17:53:03.763Z,0.00
2022-11-01T17:55:33.897Z,0.00
2022-11-01T17:58:03.183Z,0.00
2022-11-01T18:00:37.772Z,0.25
2022-11-01T18:03:06.647Z,0.50
2022-11-01T18:05:35.662Z,0.00
2022-11-01T18:08:08.282Z,0.25
2022-11-01T18:10:40.353Z,1.00
2022-11-01T18:13:09.796Z,0.00
2022-11-01T18:15:40.565Z,1.00
2022-11-01T18:18:10.618Z,0.00
2022-11-01T18:20:45.903Z,0.00
2022-11-01T18:23:14.828Z,0.50
2022-11-01T18:25:44.140Z,0.00
2022-11-01T18:28:14.058Z,0.00
2022-11-01T18:30:43.260Z,0.50
2022-11-01T18:33:12.096Z,0.00
2022-11-01T18:35:41.550Z,0.00
2022-11-01T18:38:10.751Z,0.00
2022-11-01T18:40:39.918Z,0.00
2022-11-01T18:43:09.588Z,0.00
2022-11-01T18:46:04.336Z,0.00
2022-11-01T18:48:30.002Z,0.25
2022-11-01T18:51:04.629Z,0.00
2022-11-01T18:53:37.888Z,0.00
2022-11-01T18:56:08.969Z,0.00
2022-11-01T18:58:38.917Z,0.00
2022-11-01T19:01:09.179Z,0.50
2022-11-01T19:03:38.673Z,0.25
2022-11-01T19:06:08.988Z,0.00
2022-11-01T19:08:38.531Z,0.00
2022-11-01T19:11:07.889Z,0.00
2022-11-01T19:13:37.095Z,0.00
2022-11-01T19:16:10.716Z,0.00
2022-11-01T19:18:42.400Z,0.00
2022-11-01T19:21:12.552Z,0.00
2022-11-01T19:23:41.741Z,0.50
2022-11-01T19:26:13.264Z,0.00
2022-11-01T19:28:42.859Z,0.00
2022-11-01T19:31:12.002Z,0.00
2022-11-01T19:33:41.348Z,0.00
2022-11-01T19:36:15.809Z,0.00
2022-11-01T19:38:45.998Z,0.00
2022-11-01T19:41:15.138Z,0.00
2022-11-01T19:43:44.697Z,0.25
2022-11-01T19:46:18.580Z,0.00
2022-11-01T19:48:47.883Z,1.00
2022-11-01T19:51:17.229Z,0.00
2022-11-01T19:53:46.281Z,0.00
2022-11-01T19:56:19.379Z,0.00
2022-11-01T19:58:49.939Z,0.25
2022-11-01T20:01:20.264Z,0.75
2022-11-01T20:03:49.660Z,1.00
2022-11-01T20:06:24.281Z,0.00
2022-11-01T20:08:53.359Z,0.00
2022-11-01T20:11:21.380Z,0.00
2022-11-01T20:13:49.312Z,0.00
2022-11-01T20:16:17.519Z,1.00
2022-11-01T20:18:48.693Z,0.00
2022-11-01T20:21:16.554Z,0.00
2022-11-01T20:23:44.749Z,0.00
2022-11-01T20:26:13.020Z,0.00
2022-11-01T20:28:40.926Z,1.00
2022-11-01T20:31:08.735Z,0.00
2022-11-01T20:33:36.588Z,0.00
2022-11-01T20:36:10.761Z,0.00
2022-11-01T20:38:39.158Z,1.00
2022-11-01T20:41:07.026Z,0.00
2022-11-01T20:43:36.412Z,0.00
2022-11-01T20:46:05.503Z,0.00
2022-11-01T20:48:33.511Z,0.00
2022-11-01T20:51:01.504Z,0.00
2022-11-01T20:53:29.961Z,0.00
2022-11-01T20:55:58.651Z,0.00
2022-11-01T20:58:27.102Z,0.00
2022-11-01T21:00:54.925Z,0.00
2022-11-01T21:03:22.839Z,1.00
2022-11-01T21:05:51.293Z,0.00
2022-11-01T21:08:23.247Z,1.00
2022-11-01T21:10:51.134Z,0.00
2022-11-01T21:13:21.539Z,0.00
2022-11-01T21:15:49.812Z,0.00
2022-11-01T21:18:17.830Z,0.00
2022-11-01T21:20:46.342Z,0.00
2022-11-01T21:23:14.226Z,0.25
2022-11-01T21:25:42.096Z,0.00
2022-11-01T21:28:10.005Z,0.00
2022-11-01T21:30:37.830Z,0.00
2022-11-01T21:33:06.164Z,0.00
2022-11-01T21:35:34.747Z,0.00
2022-11-01T21:38:02.876Z,0.00
2022-11-01T21:40:31.015Z,1.00
2022-11-01T21:42:58.855Z,0.00
2022-11-01T21:45:28.214Z,0.00
2022-11-01T21:47:57.658Z,0.00
2022-11-01T21:50:25.532Z,0.00
2022-11-01T21:52:53.298Z,0.00
2022-11-01T21:55:21.148Z,0.00
2022-11-01T21:57:50.205Z,0.00
2022-11-01T22:00:18.014Z,0.00
2022-11-01T22:02:46.305Z,0.00
2022-11-01T22:05:14.077Z,0.00
2022-11-01T22:07:41.877Z,0.00
2022-11-01T22:10:12.176Z,0.00
2022-11-01T22:12:39.916Z,0.25
2022-11-01T22:15:07.657Z,0.00
2022-11-01T22:17:35.435Z,0.00
2022-11-01T22:20:03.219Z,0.00
2022-11-01T22:22:31.275Z,0.00
2022-11-01T22:24:59.495Z,0.00
2022-11-01T22:27:27.261Z,0.00
2022-11-01T22:29:54.948Z,0.00
2022-11-01T22:32:22.794Z,0.00
2022-11-01T22:34:53.189Z,0.00
2022-11-01T22:37:20.867Z,0.25
2022-11-01T22:39:52.876Z,0.00
2022-11-01T22:42:22.064Z,0.00
2022-11-01T22:44:49.873Z,0.25
2022-11-01T22:47:18.571Z,0.00
2022-11-01T22:49:46.359Z,0.00
2022-11-01T22:52:15.904Z,0.00
2022-11-01T22:54:43.550Z,0.00
2022-11-01T22:57:11.250Z,0.00
2022-11-01T22:59:41.387Z,0.00
2022-11-01T23:02:09.218Z,0.00
2022-11-01T23:04:37.113Z,0.00
2022-11-01T23:07:05.659Z,0.00
2022-11-01T23:09:33.337Z,0.00
2022-11-01T23:12:18.615Z,0.00
2022-11-01T23:14:47.751Z,0.25
2022-11-01T23:17:15.960Z,0.00
2022-11-01T23:19:43.675Z,0.75
2022-11-01T23:22:11.368Z,0.00
2022-11-01T23:24:39.425Z,0.00
2022-11-01T23:27:08.213Z,0.00
2022-11-01T23:29:36.286Z,0.00
2022-11-01T23:32:03.978Z,0.00
2022-11-01T23:34:31.626Z,0.00
2022-11-01T23:36:59.609Z,0.00
2022-11-01T23:39:29.097Z,0.00
2022-11-01T23:41:56.732Z,0.00
2022-11-01T23:44:24.370Z,0.00
2022-11-01T23:46:53.045Z,0.00
2022-11-01T23:49:21.014Z,0.00
2022-11-01T23:51:53.504Z,0.00
2022-11-01T23:54:21.131Z,0.00
2022-11-01T23:56:48.774Z,0.00
2022-11-01T23:59:16.344Z,0.00
